Time;durP1;ratioP1;P1;durP2;ratioP2;P2;SDS_P1;SDS_P2;PMS_P1;PMS_P2;Temp;Humidity;BMP_temperature;BMP_pressure;BME280_temperature;BME280_humidity;BME280_pressure;Samples;Min_cycle;Max_cycle;Signal;HPM_P1;HPM_P2
2021/05/10 00:00:10;;;;;;;3.13;1.10;;;;;;;18.04;51.23;97701.16;5053994;28;20534;-71
2021/05/10 00:02:35;;;;;;;2.33;1.00;;;;;;;18.10;51.12;97711.00;5066415;28;20052;-71
2021/05/10 00:05:01;;;;;;;3.28;1.10;;;;;;;18.08;51.29;97702.25;5071957;28;20033;-71
2021/05/10 00:07:26;;;;;;;2.17;1.00;;;;;;;18.06;50.97;97700.88;5070177;28;20067;-71
2021/05/10 00:09:51;;;;;;;5.90;1.15;;;;;;;18.06;51.10;97701.69;5056145;28;20032;-71
2021/05/10 00:12:16;;;;;;;2.13;1.10;;;;;;;17.92;51.52;97703.38;5057283;28;20059;-71
2021/05/10 00:14:48;;;;;;;1.77;1.05;;;;;;;17.77;52.27;97711.59;5054213;28;20031;-71
2021/05/10 00:17:13;;;;;;;1.45;1.00;;;;;;;17.34;54.51;97722.03;5057268;28;20087;-71
2021/05/10 00:19:38;;;;;;;1.48;1.02;;;;;;;16.95;55.39;97708.88;5053954;28;20478;-71
2021/05/10 00:22:04;;;;;;;3.13;1.10;;;;;;;16.77;55.79;97716.53;5054930;28;20111;-71
2021/05/10 00:24:29;;;;;;;3.08;0.90;;;;;;;16.55;57.11;97730.34;5053882;28;20474;-71
2021/05/10 00:26:55;;;;;;;2.42;1.05;;;;;;;16.35;57.60;97742.03;5054224;28;20031;-71
2021/05/10 00:29:20;;;;;;;3.03;1.20;;;;;;;16.24;57.57;97740.31;5053725;28;20025;-71
2021/05/10 00:31:47;;;;;;;2.78;1.00;;;;;;;16.32;56.59;97726.19;5053431;28;20036;-71
2021/05/10 00:34:13;;;;;;;3.72;1.15;;;;;;;16.40;57.08;97728.41;5056307;28;20025;-71
2021/05/10 00:36:38;;;;;;;3.22;1.17;;;;;;;16.50;56.59;97727.59;5054325;28;20029;-71
2021/05/10 00:39:04;;;;;;;3.35;1.23;;;;;;;16.77;55.92;97700.13;5053385;28;20032;-71
2021/05/10 00:41:30;;;;;;;1.33;0.93;;;;;;;17.01;55.36;97724.22;5053768;28;20064;-71
2021/05/10 00:43:55;;;;;;;1.40;1.00;;;;;;;17.00;55.47;97709.72;5036004;28;20451;-71
2021/05/10 00:46:21;;;;;;;2.80;1.20;;;;;;;17.02;55.75;97714.91;5055796;28;20051;-71
2021/05/10 00:48:46;;;;;;;2.00;0.80;;;;;;;16.80;56.60;97715.97;5053265;28;20108;-71
2021/05/10 00:51:11;;;;;;;1.73;1.20;;;;;;;16.68;56.88;97709.09;5053798;28;20063;-71
2021/05/10 00:53:37;;;;;;;1.63;1.05;;;;;;;16.81;56.41;97714.88;5071999;28;20393;-71
2021/05/10 00:56:02;;;;;;;2.10;1.10;;;;;;;16.74;56.32;97708.84;5071985;28;20490;-71
2021/05/10 00:58:27;;;;;;;3.63;1.00;;;;;;;16.77;56.29;97719.25;5037582;28;20029;-71
2021/05/10 01:00:53;;;;;;;1.65;0.90;;;;;;;16.62;56.75;97720.00;5053209;28;20043;-71
2021/05/10 01:03:18;;;;;;;1.42;1.17;;;;;;;16.54;56.66;97706.88;5058443;28;20025;-71
2021/05/10 01:05:46;;;;;;;3.88;0.95;;;;;;;16.53;56.22;97718.03;5058348;28;20474;-71
2021/05/10 01:08:11;;;;;;;2.78;1.23;;;;;;;16.49;56.79;97714.22;5053311;28;20029;-71
2021/05/10 01:10:36;;;;;;;2.20;1.10;;;;;;;16.55;56.29;97696.75;5059424;28;20028;-71
2021/05/10 01:13:02;;;;;;;2.10;1.08;;;;;;;16.51;56.51;97679.28;5036005;28;20025;-71
2021/05/10 01:15:30;;;;;;;3.88;1.30;;;;;;;16.46;56.90;97685.56;5053208;28;20040;-71
2021/05/10 01:17:55;;;;;;;1.95;1.05;;;;;;;16.35;57.59;97694.81;5053098;28;20032;-71
2021/05/10 01:20:22;;;;;;;6.47;1.10;;;;;;;16.22;58.31;97693.41;5053703;28;20025;-71
2021/05/10 01:22:50;;;;;;;3.30;1.02;;;;;;;15.87;59.22;97689.41;5055955;28;20024;-71
2021/05/10 01:25:19;;;;;;;2.10;1.30;;;;;;;15.74;60.47;97685.22;5053734;28;20033;-71
2021/05/10 01:27:45;;;;;;;2.10;1.23;;;;;;;15.61;60.92;97687.59;5052729;28;20028;-71
2021/05/10 01:30:32;;;;;;;2.78;0.90;;;;;;;15.33;61.74;97675.97;5053047;28;20479;-71
2021/05/10 01:32:59;;;;;;;2.50;1.42;;;;;;;15.00;63.30;97664.25;5054152;28;20025;-71
2021/05/10 01:35:29;;;;;;;2.92;1.48;;;;;;;14.80;63.93;97669.53;5052508;28;20154;-71
2021/05/10 01:37:55;;;;;;;1.70;1.27;;;;;;;14.65;64.56;97671.03;5051889;28;20071;-71
2021/05/10 01:40:20;;;;;;;5.13;1.40;;;;;;;14.57;65.01;97673.41;5062029;28;20048;-71
2021/05/10 01:42:46;;;;;;;2.42;1.50;;;;;;;14.43;65.25;97679.19;5055869;28;20047;-71
2021/05/10 01:45:11;;;;;;;1.92;1.27;;;;;;;14.31;65.54;97681.25;5053899;28;20025;-71
2021/05/10 01:47:37;;;;;;;1.90;1.20;;;;;;;14.27;66.31;97682.03;5052471;28;20029;-71
2021/05/10 01:50:18;;;;;;;2.15;1.20;;;;;;;14.36;65.86;97685.94;5035445;28;20036;-70
2021/05/10 01:52:44;;;;;;;6.78;1.27;;;;;;;14.21;66.36;97671.09;5052096;28;20440;-71
2021/05/10 01:55:10;;;;;;;1.30;1.08;;;;;;;14.28;65.85;97686.38;5052612;28;20020;-71
2021/05/10 01:57:35;;;;;;;3.97;1.45;;;;;;;14.19;65.43;97683.28;5053520;28;20036;-71
2021/05/10 02:00:05;;;;;;;3.28;1.23;;;;;;;14.14;66.24;97675.06;5063743;28;20033;-71
2021/05/10 02:02:31;;;;;;;2.15;1.20;;;;;;;14.04;65.92;97681.19;5052041;28;20082;-71
2021/05/10 02:05:17;;;;;;;3.05;1.20;;;;;;;14.14;66.08;97680.50;5052692;28;20025;-70
2021/05/10 02:07:51;;;;;;;1.73;1.23;;;;;;;14.14;66.66;97678.59;5052176;28;20097;-70
2021/05/10 02:10:20;;;;;;;3.17;1.30;;;;;;;14.06;67.04;97676.34;5051550;28;20029;-71
2021/05/10 02:12:53;;;;;;;3.58;1.75;;;;;;;13.93;68.28;97684.88;5081088;22;20047;-70
2021/05/10 02:15:19;;;;;;;2.35;1.50;;;;;;;13.85;68.61;97666.28;5052712;28;20037;-68
2021/05/10 02:17:44;;;;;;;2.53;1.45;;;;;;;13.80;68.35;97648.81;5034613;28;20040;-68
2021/05/10 02:20:10;;;;;;;3.60;1.98;;;;;;;14.04;68.07;97651.28;5068081;28;20476;-68
2021/05/10 02:22:35;;;;;;;9.30;2.10;;;;;;;13.96;68.12;97646.28;5057037;28;20041;-68
2021/05/10 02:25:00;;;;;;;4.57;1.90;;;;;;;13.77;68.96;97630.31;5048062;28;20025;-68
2021/05/10 02:27:26;;;;;;;3.28;1.85;;;;;;;13.79;69.10;97630.88;5048444;28;20078;-70
2021/05/10 02:29:52;;;;;;;5.43;1.70;;;;;;;13.67;69.15;97642.94;5032421;28;20120;-71
2021/05/10 02:32:17;;;;;;;5.30;1.58;;;;;;;13.49;69.51;97635.91;5040902;28;20121;-70
2021/05/10 02:34:43;;;;;;;3.75;1.73;;;;;;;13.45;69.54;97623.91;5035461;28;20091;-70
2021/05/10 02:37:08;;;;;;;2.17;1.50;;;;;;;13.27;69.21;97609.53;5033028;28;20108;-70
2021/05/10 02:39:33;;;;;;;3.50;1.52;;;;;;;13.30;70.10;97630.75;5032364;28;20022;-70
2021/05/10 02:41:59;;;;;;;1.95;1.30;;;;;;;13.23;70.34;97624.66;5035208;28;20021;-70
2021/05/10 02:44:24;;;;;;;2.03;1.40;;;;;;;13.29;70.72;97642.72;5036686;28;20018;-70
2021/05/10 02:46:49;;;;;;;2.55;1.35;;;;;;;13.39;69.76;97658.34;5043233;28;20033;-70
2021/05/10 02:49:14;;;;;;;4.85;1.45;;;;;;;13.35;70.40;97652.56;5050162;28;20036;-70
2021/05/10 02:51:40;;;;;;;4.60;1.98;;;;;;;13.34;71.09;97655.56;5045170;28;20033;-70
2021/05/10 02:54:05;;;;;;;2.13;1.40;;;;;;;13.15;71.66;97655.78;5035369;28;20080;-70
2021/05/10 02:56:31;;;;;;;1.90;1.38;;;;;;;13.03;71.79;97652.31;5037547;28;20021;-70
2021/05/10 02:58:57;;;;;;;4.50;1.67;;;;;;;12.88;72.31;97635.78;5033689;28;20112;-70
2021/05/10 03:01:22;;;;;;;3.33;1.45;;;;;;;12.75;72.29;97620.66;5031543;28;20021;-70
2021/05/10 03:03:47;;;;;;;5.63;1.48;;;;;;;12.84;72.15;97638.19;5040994;28;20029;-70
2021/05/10 03:06:12;;;;;;;2.30;1.58;;;;;;;12.92;70.88;97642.38;5036346;28;20566;-70
2021/05/10 03:08:38;;;;;;;2.17;1.50;;;;;;;13.09;71.53;97647.78;5033109;28;20044;-70
2021/05/10 03:11:03;;;;;;;2.00;1.63;;;;;;;12.92;71.29;97650.53;5045572;28;20032;-70
2021/05/10 03:13:28;;;;;;;5.82;1.50;;;;;;;12.57;72.58;97640.69;5036590;28;20036;-70
2021/05/10 03:15:53;;;;;;;2.67;1.65;;;;;;;12.37;73.70;97633.03;5032682;28;20422;-70
2021/05/10 03:18:19;;;;;;;3.47;1.45;;;;;;;12.36;73.26;97644.94;5031411;28;20017;-70
2021/05/10 03:20:44;;;;;;;1.80;1.20;;;;;;;12.42;73.08;97646.69;5032457;28;20110;-70
2021/05/10 03:23:09;;;;;;;3.22;1.60;;;;;;;12.59;72.02;97633.13;5044927;28;20048;-70
2021/05/10 03:25:35;;;;;;;2.03;1.30;;;;;;;12.99;70.27;97653.06;5046194;28;20078;-70
2021/05/10 03:28:00;;;;;;;3.70;1.40;;;;;;;13.23;69.00;97662.69;5054228;28;20357;-68
2021/05/10 03:30:25;;;;;;;1.90;1.30;;;;;;;13.28;68.81;97642.94;5050706;28;20029;-68
2021/05/10 03:32:52;;;;;;;4.25;1.60;;;;;;;13.39;68.73;97636.59;5057723;28;20030;-69
2021/05/10 03:35:20;;;;;;;2.60;1.13;;;;;;;13.37;68.54;97634.13;5035654;28;20022;-69
2021/05/10 03:37:45;;;;;;;2.92;1.10;;;;;;;13.52;65.77;97640.88;5036677;28;20033;-69
2021/05/10 03:40:13;;;;;;;4.35;1.23;;;;;;;13.80;64.65;97654.25;5035819;28;20493;-69
2021/05/10 03:42:39;;;;;;;1.95;1.10;;;;;;;14.03;64.44;97657.81;5026720;28;20123;-69
2021/05/10 03:45:05;;;;;;;1.98;1.23;;;;;;;14.11;63.49;97653.81;5035650;28;20116;-69
2021/05/10 03:47:39;;;;;;;3.45;1.20;;;;;;;14.27;61.54;97649.38;5047844;28;20037;-69
2021/05/10 03:50:13;;;;;;;1.60;1.13;;;;;;;14.64;60.30;97657.66;5054271;28;20166;-69
2021/05/10 03:52:38;;;;;;;1.55;1.10;;;;;;;14.84;59.84;97654.31;5053080;28;20035;-69
2021/05/10 03:55:06;;;;;;;5.65;1.55;;;;;;;14.86;60.39;97669.31;5038583;28;20021;-68
2021/05/10 03:57:31;;;;;;;2.45;1.00;;;;;;;14.87;60.75;97694.66;5046357;28;20036;-70
2021/05/10 03:59:56;;;;;;;3.00;1.50;;;;;;;14.78;61.22;97696.22;5049407;28;20025;-68
2021/05/10 04:02:22;;;;;;;5.18;1.35;;;;;;;14.76;59.32;97698.38;5036185;28;20108;-69
2021/05/10 04:04:54;;;;;;;4.53;1.20;;;;;;;14.85;59.76;97702.25;5046584;28;20033;-69
2021/05/10 04:15:12;;;;;;;3.15;1.08;;;;;;;14.16;63.85;97714.53;5035191;28;20083;-68
2021/05/10 04:17:38;;;;;;;3.42;1.17;;;;;;;14.03;64.37;97704.88;5051693;28;20112;-70
2021/05/10 04:20:03;;;;;;;3.45;1.30;;;;;;;14.07;64.54;97712.50;5047507;28;20035;-70
2021/05/10 04:22:29;;;;;;;2.45;1.30;;;;;;;14.13;64.60;97715.06;5053197;28;20025;-71
2021/05/10 04:24:54;;;;;;;2.30;1.40;;;;;;;14.15;64.33;97715.63;5040954;28;20032;-71
2021/05/10 04:27:19;;;;;;;3.53;1.70;;;;;;;14.01;65.11;97715.16;5044779;28;20382;-71
2021/05/10 04:29:44;;;;;;;2.22;1.50;;;;;;;14.02;65.70;97733.16;5049304;28;20032;-67
2021/05/10 04:32:10;;;;;;;3.60;1.40;;;;;;;14.01;66.14;97736.91;5041765;28;20492;-69
2021/05/10 04:34:35;;;;;;;5.50;1.38;;;;;;;13.99;66.13;97738.25;5018825;28;20522;-71
2021/05/10 04:37:00;;;;;;;3.38;1.50;;;;;;;14.06;65.39;97741.63;5040016;28;20056;-67
2021/05/10 04:39:26;;;;;;;2.83;1.70;;;;;;;14.16;65.44;97758.06;5044370;28;20753;-68
2021/05/10 04:41:51;;;;;;;5.55;1.50;;;;;;;14.23;65.34;97758.72;5045269;28;20078;-71
2021/05/10 04:44:16;;;;;;;2.67;1.60;;;;;;;14.14;64.79;97738.44;5019470;28;20120;-72
2021/05/10 04:46:42;;;;;;;8.55;1.88;;;;;;;14.18;65.15;97755.09;5043900;28;20028;-67
2021/05/10 04:49:07;;;;;;;7.40;2.97;;;;;;;14.27;63.68;97739.16;5038712;28;20029;-73
2021/05/10 04:51:32;;;;;;;10.63;6.05;;;;;;;14.52;63.02;97763.97;5059884;28;20089;-71
2021/05/10 04:53:58;;;;;;;6.70;3.40;;;;;;;14.50;63.94;97757.94;5062816;28;20028;-72
2021/05/10 04:56:23;;;;;;;4.53;1.92;;;;;;;14.53;63.28;97751.19;5067136;28;20055;-75
2021/05/10 04:58:48;;;;;;;3.05;1.80;;;;;;;14.50;68.04;97714.41;5048855;28;20430;-73
2021/05/10 05:01:14;;;;;;;2.47;1.58;;;;;;;14.35;68.28;97772.19;5058497;28;20053;-72
2021/05/10 05:03:39;;;;;;;2.60;1.40;;;;;;;14.34;65.01;97775.16;5059896;28;20395;-74
2021/05/10 05:06:06;;;;;;;2.88;1.83;;;;;;;14.70;59.94;97746.50;5062409;28;20040;-72
2021/05/10 05:08:31;;;;;;;2.83;1.70;;;;;;;15.10;61.58;97754.25;5042586;28;20077;-71
2021/05/10 05:10:56;;;;;;;1.98;1.30;;;;;;;15.39;64.10;97753.94;5056660;28;20108;-71
2021/05/10 05:13:26;;;;;;;2.42;1.40;;;;;;;15.39;65.11;97756.69;5039872;28;20025;-74
2021/05/10 05:15:52;;;;;;;2.25;1.20;;;;;;;15.58;64.26;97776.19;5061650;28;20442;-72
2021/05/10 05:18:17;;;;;;;2.70;1.55;;;;;;;15.76;62.34;97747.72;5054137;28;20037;-72
2021/05/10 05:20:43;;;;;;;3.35;1.30;;;;;;;16.19;61.97;97751.22;5057479;28;20036;-71
2021/05/10 05:23:26;;;;;;;4.15;1.65;;;;;;;16.21;62.44;97771.69;5021186;28;20115;-69
2021/05/10 05:25:59;;;;;;;3.40;1.67;;;;;;;16.20;65.29;97761.88;5050760;28;20037;-72
2021/05/10 05:28:26;;;;;;;4.60;2.95;;;;;;;16.31;64.10;97757.28;5048314;28;20028;-70
2021/05/10 05:30:53;;;;;;;4.93;2.28;;;;;;;16.32;64.94;97777.22;5044494;28;20108;-71
2021/05/10 05:33:19;;;;;;;6.57;2.40;;;;;;;16.39;64.68;97767.69;5025812;28;20028;-71
2021/05/10 05:35:44;;;;;;;5.38;2.20;;;;;;;16.33;63.29;97771.50;5030475;28;20371;-71
2021/05/10 05:38:11;;;;;;;4.25;2.10;;;;;;;16.12;65.33;97765.13;5033243;28;20035;-75
2021/05/10 05:40:41;;;;;;;4.57;2.90;;;;;;;16.20;65.98;97764.59;5051639;28;20063;-70
2021/05/10 05:43:08;;;;;;;4.20;2.35;;;;;;;16.27;65.06;97772.56;5033061;28;20729;-70
2021/05/10 05:45:35;;;;;;;8.25;2.50;;;;;;;16.43;62.12;97770.72;5034685;28;20060;-73
2021/05/10 05:48:02;;;;;;;5.85;3.47;;;;;;;16.36;61.65;97778.34;5040822;28;20479;-70
2021/05/10 05:50:28;;;;;;;8.18;3.20;;;;;;;16.61;61.75;97777.59;5057306;28;20367;-73
2021/05/10 05:52:53;;;;;;;4.82;2.95;;;;;;;16.61;61.13;97772.97;5045431;28;20032;-68
2021/05/10 05:55:19;;;;;;;7.22;3.03;;;;;;;16.81;61.50;97768.69;5053005;28;20021;-75
2021/05/10 05:57:44;;;;;;;6.72;3.17;;;;;;;17.14;61.35;97783.81;5052794;28;20576;-71
2021/05/10 06:00:11;;;;;;;6.13;3.13;;;;;;;17.63;58.57;97798.84;5051328;28;20063;-72
2021/05/10 06:02:37;;;;;;;6.68;2.40;;;;;;;17.85;63.48;97807.66;5056968;28;20029;-69
2021/05/10 06:05:04;;;;;;;5.43;2.20;;;;;;;18.17;63.39;97810.06;5040557;28;20025;-71
2021/05/10 06:07:29;;;;;;;5.35;2.53;;;;;;;18.36;62.56;97828.63;5039521;28;20033;-71
2021/05/10 06:09:54;;;;;;;4.45;1.98;;;;;;;18.47;62.26;97843.13;5042772;28;20486;-70
2021/05/10 06:12:19;;;;;;;2.50;1.60;;;;;;;18.18;61.18;97866.47;5047431;28;20099;-70
2021/05/10 06:14:45;;;;;;;2.95;1.67;;;;;;;17.88;62.36;97883.72;5048374;28;20035;-73
2021/05/10 06:17:10;;;;;;;4.55;1.42;;;;;;;17.66;61.92;97869.47;5029416;28;20471;-71
2021/05/10 06:19:36;;;;;;;2.47;1.30;;;;;;;17.68;61.53;97857.16;5048521;28;20082;-74
2021/05/10 06:22:02;;;;;;;4.88;1.20;;;;;;;17.91;60.67;97885.91;5028978;28;20502;-76
2021/05/10 06:24:27;;;;;;;2.42;1.20;;;;;;;18.00;57.64;97879.88;5050072;28;20021;-73
2021/05/10 06:26:52;;;;;;;3.85;1.30;;;;;;;18.19;57.51;97880.97;5025340;28;20020;-72
2021/05/10 06:29:18;;;;;;;2.25;1.02;;;;;;;18.67;55.49;97872.38;5024369;28;20028;-71
2021/05/10 06:31:43;;;;;;;3.45;1.00;;;;;;;19.13;53.63;97864.00;5043810;28;20067;-71
2021/05/10 06:34:08;;;;;;;4.30;2.00;;;;;;;19.37;53.78;97884.16;5028404;28;20037;-77
2021/05/10 06:36:34;;;;;;;5.63;1.88;;;;;;;20.11;51.98;97895.19;5042308;28;20024;-77
2021/05/10 06:38:59;;;;;;;3.30;1.90;;;;;;;20.46;51.71;97893.22;5049105;28;20032;-76
2021/05/10 06:41:24;;;;;;;7.55;2.40;;;;;;;20.84;50.42;97877.72;5030230;28;20107;-77
2021/05/10 06:43:50;;;;;;;9.57;3.20;;;;;;;21.32;50.76;97898.84;5047242;28;20031;-69
2021/05/10 06:46:15;;;;;;;6.75;2.15;;;;;;;22.64;47.73;97876.69;5043173;28;20024;-69
2021/05/10 06:48:40;;;;;;;3.25;1.98;;;;;;;22.92;46.43;97841.66;5039254;28;20104;-69
2021/05/10 06:51:06;;;;;;;7.45;1.83;;;;;;;23.92;45.23;97868.47;5043579;28;20044;-71
2021/05/10 06:53:31;;;;;;;6.70;2.38;;;;;;;24.19;44.12;97850.09;5039755;28;20422;-71
2021/05/10 06:55:57;;;;;;;5.00;1.75;;;;;;;23.81;44.01;97844.94;5047459;28;20120;-70
2021/05/10 06:58:23;;;;;;;6.00;2.08;;;;;;;23.26;44.16;97859.72;5027027;28;20075;-70
2021/05/10 07:00:54;;;;;;;3.85;1.95;;;;;;;23.13;44.72;97871.59;5044638;28;20030;-70
2021/05/10 07:03:20;;;;;;;2.33;1.40;;;;;;;23.38;44.26;97871.03;5027043;28;20043;-70
2021/05/10 07:05:47;;;;;;;3.17;1.63;;;;;;;23.24;44.56;97873.03;5047411;28;20025;-71
2021/05/10 07:08:17;;;;;;;3.20;1.50;;;;;;;23.52;44.71;97867.44;5027767;28;20603;-70
2021/05/10 07:10:47;;;;;;;5.50;2.10;;;;;;;23.29;45.89;97883.13;5046360;28;20033;-71
2021/05/10 07:13:13;;;;;;;6.45;1.30;;;;;;;23.23;46.43;97881.59;5043805;28;20151;-70
2021/05/10 07:15:38;;;;;;;5.00;1.67;;;;;;;23.22;45.94;97886.31;5045504;28;20108;-71
2021/05/10 07:18:12;;;;;;;4.75;1.73;;;;;;;23.26;46.00;97903.88;5047573;28;20047;-76
2021/05/10 07:20:38;;;;;;;5.28;1.25;;;;;;;23.02;46.68;97909.59;5046212;28;20112;-69
2021/05/10 07:23:06;;;;;;;2.45;1.30;;;;;;;23.12;46.74;97925.16;5046349;28;20030;-76
2021/05/10 07:25:34;;;;;;;2.22;1.30;;;;;;;23.35;46.53;97928.81;5036814;28;20133;-74
2021/05/10 07:28:00;;;;;;;6.00;1.50;;;;;;;23.52;44.11;97944.75;5048237;28;20073;-73
2021/05/10 07:30:26;;;;;;;3.47;1.58;;;;;;;23.90;44.37;97963.84;5044778;28;20025;-70
2021/05/10 07:32:51;;;;;;;3.42;1.73;;;;;;;25.60;41.97;97967.47;5051241;28;20490;-73
2021/05/10 07:35:17;;;;;;;6.05;1.40;;;;;;;27.06;39.96;97964.13;5045217;28;20029;-76
2021/05/10 07:37:43;;;;;;;2.47;1.33;;;;;;;27.85;38.42;97947.91;5026313;28;20021;-76
2021/05/10 07:40:08;;;;;;;2.70;1.40;;;;;;;29.88;36.11;97954.22;5032760;28;20906;-77
2021/05/10 07:42:34;;;;;;;2.42;1.30;;;;;;;31.37;33.50;97933.66;5048752;28;20025;-73
2021/05/10 07:44:59;;;;;;;2.78;1.00;;;;;;;33.59;30.02;97948.53;5047215;28;20041;-73
2021/05/10 07:47:25;;;;;;;2.10;1.00;;;;;;;34.57;28.38;97935.47;5047081;28;20517;-77
2021/05/10 07:49:51;;;;;;;4.50;1.10;;;;;;;33.70;28.76;97949.50;5055796;28;20029;-69
2021/05/10 07:52:16;;;;;;;3.22;1.05;;;;;;;32.38;31.00;97959.09;5027120;28;20489;-69
2021/05/10 07:54:42;;;;;;;3.20;1.33;;;;;;;33.86;29.97;97963.38;5026299;28;20494;-70
2021/05/10 07:57:07;;;;;;;1.63;1.00;;;;;;;34.28;29.16;97967.97;5046442;28;20155;-71
2021/05/10 07:59:34;;;;;;;5.57;2.03;;;;;;;34.84;28.54;97974.69;5049501;28;20367;-72
2021/05/10 08:02:00;;;;;;;8.45;3.00;;;;;;;35.37;27.38;97965.16;5050725;28;20490;-74
2021/05/10 08:04:25;;;;;;;7.63;2.17;;;;;;;34.89;28.39;97965.91;5051128;28;20021;-71
2021/05/10 08:06:53;;;;;;;2.92;1.20;;;;;;;34.11;29.06;97963.72;5050033;28;20031;-71
2021/05/10 08:09:18;;;;;;;5.75;1.15;;;;;;;33.36;30.74;97965.38;5048436;28;20025;-73
2021/05/10 08:11:43;;;;;;;3.00;1.02;;;;;;;32.63;31.08;97964.41;5047232;28;20032;-73
2021/05/10 08:14:09;;;;;;;5.18;1.50;;;;;;;30.97;33.58;97959.75;5049447;28;20033;-71
2021/05/10 08:16:35;;;;;;;2.78;0.98;;;;;;;30.32;34.31;97942.41;5048701;28;20100;-71
2021/05/10 08:19:00;;;;;;;3.78;1.10;;;;;;;30.44;34.07;97941.50;5053088;28;20048;-70
2021/05/10 08:21:25;;;;;;;2.50;0.95;;;;;;;31.66;32.92;97937.94;5044132;28;20025;-71
2021/05/10 08:23:50;;;;;;;2.60;1.02;;;;;;;32.39;30.84;97938.31;5044136;28;20033;-70
2021/05/10 08:26:16;;;;;;;2.92;0.90;;;;;;;33.44;30.00;97935.44;5046761;28;20474;-73
2021/05/10 08:28:41;;;;;;;4.80;1.33;;;;;;;33.72;30.02;97933.13;5049390;28;20020;-72
2021/05/10 08:31:07;;;;;;;2.97;1.00;;;;;;;34.79;28.89;97953.34;5045418;28;20029;-76
2021/05/10 08:33:34;;;;;;;1.83;0.90;;;;;;;35.77;28.14;97958.69;5034438;28;20264;-77
2021/05/10 08:35:59;;;;;;;4.22;1.10;;;;;;;34.85;28.75;97970.69;5033934;28;20483;-76
2021/05/10 08:38:24;;;;;;;2.88;1.02;;;;;;;34.89;28.24;97963.09;5034069;28;20029;-77
2021/05/10 08:40:53;;;;;;;4.60;1.13;;;;;;;32.41;31.49;97952.78;5053317;28;20032;-73
2021/05/10 08:43:20;;;;;;;;;;;;;;;30.38;34.47;97970.84;5047392;28;20040;-74
2021/05/10 08:45:53;;;;;;;3.67;1.00;;;;;;;28.49;36.82;97978.16;5044776;28;19932;-74
2021/05/10 08:48:18;;;;;;;5.03;0.85;;;;;;;27.56;38.39;97976.50;5053344;28;20052;-67
2021/05/10 08:50:43;;;;;;;3.20;0.90;;;;;;;26.23;40.99;97985.47;5036893;28;20495;-67
2021/05/10 08:53:12;;;;;;;2.97;0.95;;;;;;;25.03;43.67;97984.00;5035712;28;20394;-70
2021/05/10 08:55:37;;;;;;;6.03;1.35;;;;;;;24.60;44.96;97984.56;5044748;28;20029;-70
2021/05/10 08:58:04;;;;;;;5.03;1.13;;;;;;;23.94;45.83;97987.75;5050646;28;20506;-70
2021/05/10 09:00:30;;;;;;;5.85;1.25;;;;;;;23.48;46.40;97996.19;5039134;28;20048;-68
2021/05/10 09:03:09;;;;;;;7.45;1.25;;;;;;;23.27;47.29;98002.13;5038745;28;20107;-66
2021/05/10 09:05:49;;;;;;;3.38;1.33;;;;;;;23.34;47.85;98008.06;5049015;28;20029;-68
2021/05/10 09:08:15;;;;;;;8.55;1.10;;;;;;;24.78;45.39;97993.78;5033374;28;20029;-67
2021/05/10 09:10:41;;;;;;;5.93;1.05;;;;;;;26.96;41.13;97983.91;5043003;28;20624;-70
2021/05/10 09:13:06;;;;;;;6.43;0.90;;;;;;;28.34;38.09;97987.13;5034382;28;20448;-77
2021/05/10 09:15:36;;;;;;;1.52;0.85;;;;;;;30.51;34.72;97986.38;5025179;28;20052;-75
2021/05/10 09:18:07;;;;;;;4.80;1.00;;;;;;;30.85;33.86;98007.31;5033163;28;20036;-74
2021/05/10 09:20:39;;;;;;;2.70;0.70;;;;;;;29.35;35.91;98016.59;5015582;28;20376;-75
2021/05/10 09:23:09;;;;;;;1.88;0.60;;;;;;;27.32;38.56;98009.31;5041190;28;20552;-75
2021/05/10 09:25:37;;;;;;;6.75;0.95;;;;;;;26.29;40.06;97996.41;5034375;28;20452;-76
2021/05/10 09:28:22;;;;;;;4.78;0.80;;;;;;;25.98;41.59;98014.00;5033702;28;20108;-75
2021/05/10 09:30:53;;;;;;;2.75;0.80;;;;;;;25.47;40.97;98015.47;5037617;28;20129;-75
2021/05/10 09:33:25;;;;;;;2.97;0.77;;;;;;;25.45;41.97;98018.56;5044655;28;20694;-78
2021/05/10 09:35:54;;;;;;;1.33;0.60;;;;;;;25.29;41.76;98022.91;5030110;28;20060;-78
2021/05/10 09:38:21;;;;;;;1.58;0.50;;;;;;;25.08;41.64;98009.59;5027839;28;20025;-75
2021/05/10 09:40:48;;;;;;;1.10;0.60;;;;;;;24.99;41.04;98025.31;5046005;28;20513;-76
2021/05/10 09:43:16;;;;;;;1.80;0.40;;;;;;;25.08;40.84;98042.78;5051166;28;20021;-78
2021/05/10 09:45:52;;;;;;;3.97;0.63;;;;;;;25.99;38.33;98030.31;5042754;28;20025;-74
2021/05/10 09:48:19;;;;;;;2.30;0.65;;;;;;;27.17;37.48;98036.78;5029544;28;20028;-72
2021/05/10 09:50:51;;;;;;;1.38;0.45;;;;;;;27.83;36.67;98033.63;5066750;28;20397;-69
2021/05/10 09:53:45;;;;;;;1.95;0.40;;;;;;;28.48;36.60;98026.66;5039913;28;20026;-63
2021/05/10 09:56:32;;;;;;;3.83;0.60;;;;;;;28.38;36.45;98043.72;5039940;28;20035;-66
2021/05/10 09:58:58;;;;;;;2.55;0.50;;;;;;;28.80;35.79;98043.72;5033359;28;20051;-64
2021/05/10 10:01:25;;;;;;;1.33;0.30;;;;;;;29.30;34.08;98044.69;5039603;28;20103;-64
2021/05/10 10:03:58;;;;;;;2.53;0.25;;;;;;;29.96;33.69;98038.13;5039303;28;20482;-65
2021/05/10 10:06:24;;;;;;;0.85;0.40;;;;;;;31.23;32.18;98045.03;5038886;28;20047;-71
2021/05/10 10:08:50;;;;;;;0.40;0.30;;;;;;;31.00;32.03;98042.03;5032497;28;20024;-70
2021/05/10 10:11:18;;;;;;;0.90;0.22;;;;;;;29.48;33.38;98041.34;5050306;28;20155;-69
2021/05/10 10:13:44;;;;;;;0.77;0.28;;;;;;;28.82;34.14;98039.44;5041288;28;20025;-69
2021/05/10 10:16:12;;;;;;;1.95;0.65;;;;;;;28.34;35.46;98035.22;5014356;28;20170;-72
2021/05/10 10:18:40;;;;;;;2.58;0.30;;;;;;;27.56;36.55;98037.63;5032970;28;20029;-72
2021/05/10 10:21:08;;;;;;;1.98;0.40;;;;;;;27.34;37.74;98044.28;5047480;28;20029;-71
2021/05/10 10:23:35;;;;;;;0.70;0.40;;;;;;;27.13;37.76;98050.50;5032882;28;20037;-71
2021/05/10 10:26:04;;;;;;;0.98;0.30;;;;;;;26.90;38.85;98049.91;5034450;28;20017;-72
2021/05/10 10:28:29;;;;;;;5.53;0.55;;;;;;;25.93;40.04;98051.00;5032273;28;20457;-71
2021/05/10 10:30:58;;;;;;;1.05;0.35;;;;;;;25.52;41.49;98071.53;5050442;28;20083;-71
2021/05/10 10:33:33;;;;;;;0.50;0.30;;;;;;;25.05;42.49;98076.66;5042514;28;20025;-71
2021/05/10 10:36:00;;;;;;;2.17;0.60;;;;;;;25.01;42.38;98067.31;5033315;28;20526;-72
2021/05/10 10:38:30;;;;;;;2.40;0.70;;;;;;;24.98;42.35;98076.28;5040683;28;20033;-71
2021/05/10 10:41:25;;;;;;;1.30;0.45;;;;;;;24.58;42.71;98078.91;5030291;28;20126;-71
2021/05/10 10:43:51;;;;;;;0.75;0.40;;;;;;;24.32;44.13;98097.19;5023693;28;20044;-71
2021/05/10 10:46:22;;;;;;;2.58;0.57;;;;;;;24.54;44.03;98100.00;5026889;28;20468;-71
2021/05/10 10:48:49;;;;;;;2.60;0.52;;;;;;;24.40;43.51;98102.00;5043056;28;20087;-72
2021/05/10 10:51:15;;;;;;;1.60;0.40;;;;;;;24.09;43.47;98129.47;5042068;28;20488;-71
2021/05/10 10:53:53;;;;;;;2.10;0.30;;;;;;;23.69;43.29;98142.97;5030929;28;20048;-71
2021/05/10 10:56:53;;;;;;;0.57;0.20;;;;;;;23.86;43.07;98143.19;5034281;28;20022;-72
2021/05/10 10:59:24;;;;;;;0.82;0.20;;;;;;;24.05;42.83;98135.63;5036925;28;20042;-72
2021/05/10 11:01:49;;;;;;;1.80;0.25;;;;;;;24.24;42.13;98127.19;5030329;28;20205;-69
2021/05/10 11:04:29;;;;;;;3.65;0.40;;;;;;;24.58;42.56;98105.75;5045608;28;20044;-71
2021/05/10 11:06:55;;;;;;;0.40;0.10;;;;;;;25.00;40.95;98078.72;5033524;28;20029;-71
2021/05/10 11:09:53;;;;;;;2.35;0.28;;;;;;;25.24;40.68;98115.22;5043871;28;20033;-72
2021/05/10 11:12:47;;;;;;;1.30;0.20;;;;;;;24.99;41.47;98129.66;4977760;28;20148;-72
2021/05/10 11:15:35;;;;;;;0.68;0.20;;;;;;;24.49;41.96;98123.06;5041909;28;20033;-72
2021/05/10 11:18:02;;;;;;;2.30;0.20;;;;;;;24.06;42.52;98119.84;5029988;28;20037;-71
2021/05/10 11:20:40;;;;;;;1.90;0.38;;;;;;;23.98;43.17;98135.22;5048127;28;20415;-72
2021/05/10 11:23:23;;;;;;;0.93;0.20;;;;;;;23.54;43.59;98146.81;5049262;28;20036;-74
2021/05/10 11:25:53;;;;;;;0.52;0.20;;;;;;;23.44;43.59;98147.00;5037142;28;20043;-73
2021/05/10 11:28:24;;;;;;;0.10;0.10;;;;;;;23.25;43.98;98150.63;5048184;28;20106;-72
2021/05/10 11:30:59;;;;;;;1.73;0.30;;;;;;;23.00;45.04;98164.84;5047493;28;20040;-73
2021/05/10 11:33:56;;;;;;;0.17;0.10;;;;;;;22.70;45.12;98167.75;5010545;28;20057;-71
2021/05/10 11:36:22;;;;;;;0.20;0.20;;;;;;;22.30;46.24;98163.63;5022798;28;20028;-72
2021/05/10 11:38:55;;;;;;;1.13;0.20;;;;;;;22.30;46.54;98177.41;5033290;28;20143;-71
2021/05/10 11:41:53;;;;;;;0.28;0.10;;;;;;;22.14;46.00;98173.16;5029965;28;20049;-71
2021/05/10 11:44:36;;;;;;;0.30;0.20;;;;;;;21.89;46.66;98181.44;5027233;28;20038;-70